createdAt,value
2022-08-03T00:02:16.828Z,101479.78
2022-08-03T00:06:18.560Z,101477.50
2022-08-03T00:10:20.195Z,101469.28
2022-08-03T00:14:21.760Z,101482.41
2022-08-03T00:18:23.382Z,101476.50
2022-08-03T00:22:24.905Z,101480.00
2022-08-03T00:26:26.495Z,101478.03
2022-08-03T00:30:30.921Z,101473.72
2022-08-03T00:34:57.254Z,101480.03
2022-08-03T00:38:54.520Z,101471.06
2022-08-03T00:43:04.274Z,101473.88
2022-08-03T00:47:05.845Z,101467.97
2022-08-03T00:51:07.470Z,101473.47
2022-08-03T00:55:10.210Z,101466.47
2022-08-03T00:59:12.054Z,101463.56
2022-08-03T01:03:16.020Z,101464.03
2022-08-03T01:07:23.008Z,101462.41
2022-08-03T01:12:00.266Z,101455.75
2022-08-03T01:16:06.051Z,101443.94
2022-08-03T01:20:10.577Z,101444.84
2022-08-03T01:24:20.193Z,101437.88
2022-08-03T01:28:56.755Z,101437.06
2022-08-03T01:33:08.760Z,101432.38
2022-08-03T01:37:12.910Z,101437.41
2022-08-03T01:41:20.077Z,101429.34
2022-08-03T01:45:22.586Z,101429.47
2022-08-03T01:49:24.721Z,101424.66
2022-08-03T01:53:28.669Z,101423.53
2022-08-03T01:57:30.741Z,101419.38
2022-08-03T02:02:27.972Z,101416.13
2022-08-03T02:06:11.723Z,101419.25
2022-08-03T02:10:34.884Z,101419.38
2022-08-03T02:14:40.723Z,101422.47
2022-08-03T02:18:42.287Z,101419.00
2022-08-03T02:22:44.872Z,101411.84
2022-08-03T02:26:46.926Z,101411.03
2022-08-03T02:30:53.995Z,101413.66
2022-08-03T02:34:57.885Z,101409.72
2022-08-03T02:39:01.487Z,101403.72
2022-08-03T02:43:08.830Z,101408.22
2022-08-03T02:47:11.881Z,101401.88
2022-08-03T02:51:14.648Z,101403.78
2022-08-03T02:55:16.634Z,101409.03
2022-08-03T02:59:19.356Z,101403.03
2022-08-03T03:03:22.049Z,101399.50
2022-08-03T03:07:23.833Z,101401.72
2022-08-03T03:11:29.532Z,101408.13
2022-08-03T03:15:35.721Z,101398.69
2022-08-03T03:19:39.824Z,101405.72
2022-08-03T03:23:42.016Z,101390.13
2022-08-03T03:27:44.103Z,101394.28
2022-08-03T03:31:51.355Z,101398.81
2022-08-03T03:35:53.593Z,101407.16
2022-08-03T03:39:55.181Z,101406.41
2022-08-03T03:43:56.777Z,101401.97
2022-08-03T03:48:00.504Z,101402.47
2022-08-03T03:52:01.954Z,101403.66
2022-08-03T03:56:03.678Z,101408.66
2022-08-03T04:00:06.300Z,101405.13
2022-08-03T04:04:26.627Z,101406.06
2022-08-03T04:08:46.791Z,101397.97
2022-08-03T04:12:53.016Z,101405.47
2022-08-03T04:17:01.650Z,101398.44
2022-08-03T04:21:05.866Z,101411.34
2022-08-03T04:25:10.369Z,101404.28
2022-08-03T04:29:13.669Z,101399.75
2022-08-03T04:33:17.389Z,101401.13
2022-08-03T04:37:35.502Z,101401.91
2022-08-03T04:42:06.954Z,101404.78
2022-08-03T04:46:02.466Z,101411.06
2022-08-03T04:50:09.176Z,101406.06
2022-08-03T04:54:13.873Z,101409.97
2022-08-03T04:58:15.340Z,101419.53
2022-08-03T05:02:17.162Z,101417.00
2022-08-03T05:06:18.926Z,101410.88
2022-08-03T05:10:23.020Z,101411.13
2022-08-03T05:14:27.964Z,101416.47
2022-08-03T05:18:29.854Z,101421.75
2022-08-03T05:22:31.389Z,101418.31
2022-08-03T05:26:32.838Z,101419.38
2022-08-03T05:30:34.635Z,101418.44
2022-08-03T05:34:36.300Z,101419.38
2022-08-03T05:38:37.940Z,101405.34
2022-08-03T05:42:39.412Z,101416.28
2022-08-03T05:46:40.888Z,101411.50
2022-08-03T05:50:43.003Z,101417.25
2022-08-03T05:54:57.347Z,101414.00
2022-08-03T05:59:11.397Z,101419.63
2022-08-03T06:03:21.174Z,101414.28
2022-08-03T06:07:23.876Z,101416.09
2022-08-03T06:11:25.342Z,101414.31
2022-08-03T06:15:26.839Z,101419.72
2022-08-03T06:19:28.380Z,101415.78
2022-08-03T06:23:54.702Z,101407.50
2022-08-03T06:27:51.487Z,101414.19
2022-08-03T06:31:53.093Z,101406.09
2022-08-03T06:35:54.562Z,101413.16
2022-08-03T06:39:56.067Z,101419.16
2022-08-03T06:44:03.411Z,101415.78
2022-08-03T06:48:07.999Z,101417.13
2022-08-03T06:52:09.568Z,101412.97
2022-08-03T06:56:11.137Z,101417.44
2022-08-03T07:00:13.150Z,101426.53
2022-08-03T07:04:14.651Z,101414.53
2022-08-03T07:08:16.329Z,101421.47
2022-08-03T07:12:18.165Z,101415.03
2022-08-03T07:16:20.068Z,101427.56
2022-08-03T07:20:21.519Z,101423.56
2022-08-03T07:24:22.993Z,101419.09
2022-08-03T07:28:24.411Z,101422.19
2022-08-03T07:32:26.450Z,101424.81
2022-08-03T07:36:29.019Z,101415.00
2022-08-03T07:40:31.726Z,101431.69
2022-08-03T07:44:33.555Z,101432.84
2022-08-03T07:48:35.001Z,101425.94
2022-08-03T07:52:49.255Z,101423.56
2022-08-03T07:56:50.691Z,101425.06
2022-08-03T08:00:53.169Z,101426.66
2022-08-03T08:04:54.964Z,101420.69
2022-08-03T08:09:01.660Z,101421.94
2022-08-03T08:13:04.240Z,101415.75
2022-08-03T08:17:07.393Z,101417.63
2022-08-03T08:21:10.186Z,101412.69
2022-08-03T08:25:11.907Z,101412.84
2022-08-03T08:29:13.413Z,101415.13
2022-08-03T08:33:23.556Z,101406.03
2022-08-03T08:37:25.368Z,101413.56
2022-08-03T08:41:32.058Z,101402.16
2022-08-03T08:45:34.080Z,101404.19
2022-08-03T08:49:38.361Z,101408.75
2022-08-03T08:53:44.153Z,101405.41
2022-08-03T08:57:49.396Z,101405.13
2022-08-03T09:01:50.917Z,101393.81
2022-08-03T09:05:56.140Z,101400.47
2022-08-03T09:10:10.391Z,101399.56
2022-08-03T09:14:36.678Z,101393.28
2022-08-03T09:18:36.704Z,101399.22
2022-08-03T09:23:24.703Z,101396.13
2022-08-03T09:27:27.060Z,101390.56
2022-08-03T09:31:32.227Z,101387.56
2022-08-03T09:35:57.447Z,101381.63
2022-08-03T09:39:59.400Z,101393.06
2022-08-03T09:44:00.914Z,101392.75
2022-08-03T09:48:22.896Z,101394.88
2022-08-03T09:52:39.152Z,101384.09
2022-08-03T09:56:52.515Z,101391.84
2022-08-03T10:01:03.738Z,101390.69
2022-08-03T10:05:08.227Z,101378.44
2022-08-03T10:09:12.724Z,101364.69
2022-08-03T10:13:15.619Z,101367.16
2022-08-03T10:17:17.328Z,101366.97
2022-08-03T10:21:20.099Z,101362.38
2022-08-03T10:25:22.088Z,101370.44
2022-08-03T10:29:39.644Z,101360.88
2022-08-03T10:33:51.329Z,101366.50
2022-08-03T10:38:04.935Z,101363.16
2022-08-03T10:42:14.447Z,101355.78
2022-08-03T10:46:21.121Z,101373.72
2022-08-03T10:50:24.929Z,101361.06
2022-08-03T10:54:35.263Z,101348.97
2022-08-03T10:58:36.816Z,101348.97
2022-08-03T11:03:16.066Z,101358.25
2022-08-03T11:07:23.124Z,101351.03
2022-08-03T11:11:26.342Z,101352.81
2022-08-03T11:15:33.557Z,101343.63
2022-08-03T11:19:57.227Z,101339.25
2022-08-03T11:24:02.642Z,101344.25
2022-08-03T11:28:27.116Z,101340.78
2022-08-03T11:32:37.754Z,101340.50
2022-08-03T11:37:17.817Z,101346.16
2022-08-03T11:41:42.726Z,101336.91
2022-08-03T11:45:57.035Z,101345.00
2022-08-03T11:50:01.869Z,101335.13
2022-08-03T11:54:05.788Z,101336.63
2022-08-03T11:59:19.012Z,101339.84
2022-08-03T12:02:28.896Z,101334.69
2022-08-03T12:06:30.677Z,101335.56
2022-08-03T12:10:32.436Z,101329.13
2022-08-03T12:14:48.238Z,101329.06
2022-08-03T12:19:02.123Z,101332.66
2022-08-03T12:23:09.562Z,101324.00
2022-08-03T12:27:11.201Z,101330.75
2022-08-03T12:31:13.624Z,101323.19
2022-08-03T12:35:24.725Z,101316.03
2022-08-03T12:39:31.018Z,101321.47
2022-08-03T12:43:37.582Z,101318.97
2022-08-03T12:47:57.971Z,101318.25
2022-08-03T12:52:04.075Z,101324.22
2022-08-03T12:56:08.960Z,101331.59
2022-08-03T13:00:21.514Z,101327.25
2022-08-03T13:04:36.574Z,101330.78
2022-08-03T13:08:38.465Z,101318.13
2022-08-03T13:12:48.243Z,101329.91
2022-08-03T13:16:49.827Z,101319.88
2022-08-03T13:20:51.313Z,101320.25
2022-08-03T13:24:58.141Z,101328.47
2022-08-03T13:28:59.605Z,101324.38
2022-08-03T13:33:01.203Z,101343.72
2022-08-03T13:37:10.529Z,101336.22
2022-08-03T13:41:15.510Z,101318.56
2022-08-03T13:45:17.757Z,101317.69
2022-08-03T13:49:19.572Z,101321.91
2022-08-03T13:53:21.223Z,101325.63
2022-08-03T13:58:06.400Z,101321.97
2022-08-03T14:01:55.065Z,101320.88
2022-08-03T14:05:57.352Z,101323.91
2022-08-03T14:09:58.819Z,101309.88
2022-08-03T14:14:00.370Z,101305.88
2022-08-03T14:18:01.828Z,101311.06
2022-08-03T14:22:06.622Z,101299.22
2022-08-03T14:26:09.394Z,101307.44
2022-08-03T14:30:11.726Z,101306.13
2022-08-03T14:34:13.174Z,101308.03
2022-08-03T14:38:14.924Z,101309.16
2022-08-03T14:42:16.872Z,101312.06
2022-08-03T14:46:18.418Z,101310.31
2022-08-03T14:50:32.572Z,101312.06
2022-08-03T14:54:40.860Z,101310.34
2022-08-03T14:58:42.423Z,101304.00
2022-08-03T15:02:43.946Z,101301.50
2022-08-03T15:06:45.501Z,101302.03
2022-08-03T15:10:55.714Z,101306.75
2022-08-03T15:14:57.339Z,101308.66
2022-08-03T15:18:58.986Z,101299.50
2022-08-03T15:23:00.478Z,101305.03
2022-08-03T15:27:01.985Z,101301.13
2022-08-03T15:31:07.937Z,101303.09
2022-08-03T15:35:09.453Z,101304.31
2022-08-03T15:39:10.954Z,101292.41
2022-08-03T15:43:12.557Z,101289.94
2022-08-03T15:47:14.028Z,101297.75
2022-08-03T15:51:15.708Z,101292.28
2022-08-03T15:55:17.364Z,101289.47
2022-08-03T15:59:19.852Z,101287.13
2022-08-03T16:03:21.539Z,101294.22
2022-08-03T16:07:41.996Z,101289.38
2022-08-03T16:12:03.519Z,101289.13
2022-08-03T16:16:04.981Z,101292.25
